Time;durP1;ratioP1;P1;durP2;ratioP2;P2;SDS_P1;SDS_P2;PMS_P1;PMS_P2;Temp;Humidity;BMP_temperature;BMP_pressure;BME280_temperature;BME280_humidity;BME280_pressure;Samples;Min_cycle;Max_cycle;Signal;HPM_P1;HPM_P2
2023/06/29 00:00:19;;;;;;;7.35;4.38;;;;;;;;;;5092534;28;20389;-60
2023/06/29 00:02:47;;;;;;;6.38;4.22;;;;;;;;;;5090139;28;20512;-60
2023/06/29 00:05:16;;;;;;;5.80;4.20;;;;;;;;;;5091849;28;20048;-60
2023/06/29 00:07:43;;;;;;;6.38;4.60;;;;;;;;;;5091218;28;20055;-59
2023/06/29 00:10:10;;;;;;;6.35;4.75;;;;;;;;;;5094557;28;20048;-60
2023/06/29 00:12:37;;;;;;;5.60;4.00;;;;;;;;;;5089162;28;20044;-64
2023/06/29 00:15:04;;;;;;;9.13;5.15;;;;;;;;;;5091304;28;20056;-60
2023/06/29 00:17:31;;;;;;;5.60;4.50;;;;;;;;;;5092951;28;20071;-60
2023/06/29 00:20:02;;;;;;;8.30;4.82;;;;;;;;;;5088450;28;20051;-60
2023/06/29 00:22:29;;;;;;;7.63;4.43;;;;;;;;;;5091192;28;20127;-60
2023/06/29 00:24:57;;;;;;;9.68;5.97;;;;;;;;;;5089073;28;20420;-60
2023/06/29 00:27:24;;;;;;;7.60;5.43;;;;;;;;;;5093618;28;20551;-60
2023/06/29 00:29:53;;;;;;;7.72;5.18;;;;;;;;;;5083602;28;20052;-61
2023/06/29 00:32:20;;;;;;;;;;;;;;;;;;5087650;28;20063;-60
2023/06/29 00:34:49;;;;;;;7.97;4.55;;;;;;;;;;5081075;28;19920;-60
2023/06/29 00:37:17;;;;;;;8.98;5.40;;;;;;;;;;5074807;28;20053;-61
2023/06/29 00:39:46;;;;;;;7.30;5.30;;;;;;;;;;5086532;28;20507;-61
2023/06/29 00:42:13;;;;;;;6.07;4.55;;;;;;;;;;5087331;28;20048;-60
2023/06/29 00:44:40;;;;;;;8.98;5.03;;;;;;;;;;5086527;28;20056;-60
2023/06/29 00:47:07;;;;;;;7.68;4.20;;;;;;;;;;5083954;28;20047;-60
2023/06/29 00:49:34;;;;;;;8.15;4.50;;;;;;;;;;5089021;28;20052;-60
2023/06/29 00:52:01;;;;;;;7.38;4.53;;;;;;;;;;5071290;28;20060;-61
2023/06/29 00:54:29;;;;;;;5.00;3.75;;;;;;;;;;5071259;28;20061;-60
2023/06/29 00:56:58;;;;;;;7.10;4.72;;;;;;;;;;5082926;28;20070;-60
2023/06/29 00:59:25;;;;;;;6.90;4.75;;;;;;;;;;5084322;28;20080;-60
2023/06/29 01:01:52;;;;;;;7.63;5.45;;;;;;;;;;5074700;28;20059;-60
2023/06/29 01:04:22;;;;;;;7.03;4.63;;;;;;;;;;5076787;28;20056;-60
2023/06/29 01:06:51;;;;;;;7.40;5.10;;;;;;;;;;5071581;28;20044;-60
2023/06/29 01:09:18;;;;;;;6.72;4.85;;;;;;;;;;5087418;28;20059;-60
2023/06/29 01:11:47;;;;;;;6.88;5.10;;;;;;;;;;5083651;28;20047;-61
2023/06/29 01:14:15;;;;;;;7.05;5.10;;;;;;;;;;5072586;28;20060;-59
2023/06/29 01:16:43;;;;;;;10.73;4.93;;;;;;;;;;5082460;28;20056;-60
2023/06/29 01:19:15;;;;;;;7.35;4.90;;;;;;;;;;5061236;28;20048;-60
2023/06/29 01:21:44;;;;;;;7.60;5.07;;;;;;;;;;5080939;28;20044;-60
2023/06/29 01:24:12;;;;;;;7.65;4.82;;;;;;;;;;5085799;28;20079;-60
2023/06/29 01:26:40;;;;;;;5.65;4.43;;;;;;;;;;5091636;28;20048;-60
2023/06/29 01:29:07;;;;;;;8.23;5.10;;;;;;;;;;5093110;28;20056;-60
2023/06/29 01:31:36;;;;;;;7.93;4.72;;;;;;;;;;5087846;28;20048;-60
2023/06/29 01:34:03;;;;;;;8.10;5.07;;;;;;;;;;5090980;28;20053;-59
2023/06/29 01:36:32;;;;;;;7.72;5.05;;;;;;;;;;5087522;28;20115;-59
2023/06/29 01:39:02;;;;;;;6.55;5.38;;;;;;;;;;5092627;28;20048;-60
2023/06/29 01:41:30;;;;;;;5.45;4.53;;;;;;;;;;5091459;28;20392;-60
2023/06/29 01:44:00;;;;;;;10.57;5.97;;;;;;;;;;5090927;28;20485;-60
2023/06/29 01:46:28;;;;;;;9.20;5.05;;;;;;;;;;5077927;28;21309;-60
2023/06/29 01:48:55;;;;;;;7.13;4.78;;;;;;;;;;5091714;28;20052;-59
2023/06/29 01:51:22;;;;;;;9.00;5.47;;;;;;;;;;5088943;28;20527;-60
2023/06/29 01:53:50;;;;;;;7.75;5.47;;;;;;;;;;5090385;28;20052;-60
2023/06/29 01:56:16;;;;;;;8.70;4.95;;;;;;;;;;5088067;28;22151;-59
2023/06/29 01:58:45;;;;;;;8.50;4.90;;;;;;;;;;5092435;28;20048;-60
2023/06/29 02:01:13;;;;;;;6.97;4.53;;;;;;;;;;5089281;28;20062;-60
2023/06/29 02:03:41;;;;;;;6.38;4.53;;;;;;;;;;5091278;28;20052;-60
2023/06/29 02:06:08;;;;;;;7.15;4.95;;;;;;;;;;5086149;28;20059;-60
2023/06/29 02:08:35;;;;;;;8.18;5.90;;;;;;;;;;5092182;28;20044;-60
2023/06/29 02:11:02;;;;;;;7.57;5.22;;;;;;;;;;5090568;28;20489;-60
2023/06/29 02:13:29;;;;;;;8.13;4.85;;;;;;;;;;5072075;28;20052;-60
2023/06/29 02:15:59;;;;;;;7.43;4.80;;;;;;;;;;5082701;28;20063;-60
2023/06/29 02:18:27;;;;;;;8.75;5.30;;;;;;;;;;5090247;28;20059;-60
2023/06/29 02:20:54;;;;;;;9.88;5.63;;;;;;;;;;5087711;28;20048;-60
2023/06/29 02:23:21;;;;;;;7.15;5.20;;;;;;;;;;5090633;28;20055;-60
2023/06/29 02:25:48;;;;;;;8.38;4.90;;;;;;;;;;5071153;28;20055;-62
2023/06/29 02:28:14;;;;;;;9.63;5.30;;;;;;;;;;5089618;28;20052;-61
2023/06/29 02:30:46;;;;;;;8.20;4.88;;;;;;;;;;5090860;28;20423;-60
2023/06/29 02:33:13;;;;;;;8.65;4.75;;;;;;;;;;5084518;28;20057;-60
2023/06/29 02:35:43;;;;;;;8.98;5.85;;;;;;;;;;5073730;28;20051;-60
2023/06/29 02:38:10;;;;;;;9.13;5.75;;;;;;;;;;5072128;28;20054;-61
2023/06/29 02:40:37;;;;;;;11.65;6.50;;;;;;;;;;5081187;28;20494;-61
2023/06/29 02:43:03;;;;;;;8.43;5.15;;;;;;;;;;5075381;28;20056;-60
2023/06/29 02:45:33;;;;;;;7.82;5.47;;;;;;;;;;5087852;28;20060;-61
2023/06/29 02:48:00;;;;;;;7.55;5.55;;;;;;;;;;5087598;28;20048;-61
2023/06/29 02:50:27;;;;;;;7.70;5.45;;;;;;;;;;5084280;28;20058;-60
2023/06/29 02:52:55;;;;;;;8.65;5.47;;;;;;;;;;5073856;28;20311;-61
2023/06/29 02:55:22;;;;;;;8.13;5.65;;;;;;;;;;5074354;28;20055;-61
2023/06/29 02:57:49;;;;;;;8.10;5.18;;;;;;;;;;5081992;28;20044;-61
2023/06/29 03:00:23;;;;;;;6.80;4.65;;;;;;;;;;5077727;28;20394;-61
2023/06/29 03:02:50;;;;;;;9.48;5.35;;;;;;;;;;5078554;28;20048;-61
2023/06/29 03:05:17;;;;;;;7.32;5.55;;;;;;;;;;5079300;28;20063;-61
2023/06/29 03:07:46;;;;;;;7.47;5.55;;;;;;;;;;5083994;28;20040;-61
2023/06/29 03:10:17;;;;;;;6.28;4.80;;;;;;;;;;5073780;28;20056;-61
2023/06/29 03:12:44;;;;;;;11.30;5.35;;;;;;;;;;5073958;28;20056;-59
2023/06/29 03:15:11;;;;;;;8.60;5.55;;;;;;;;;;5083070;28;20052;-60
2023/06/29 03:17:38;;;;;;;6.97;4.75;;;;;;;;;;5081642;28;20462;-61
2023/06/29 03:20:06;;;;;;;9.18;5.88;;;;;;;;;;5072499;28;20053;-61
2023/06/29 03:22:33;;;;;;;8.57;4.97;;;;;;;;;;5076192;28;20056;-61
2023/06/29 03:24:59;;;;;;;6.40;4.40;;;;;;;;;;5083369;28;20501;-61
2023/06/29 03:27:31;;;;;;;10.82;5.47;;;;;;;;;;5092156;28;20404;-60
2023/06/29 03:29:58;;;;;;;10.60;5.28;;;;;;;;;;5093905;28;20420;-61
2023/06/29 03:32:25;;;;;;;11.57;4.97;;;;;;;;;;5092208;28;20059;-61
2023/06/29 03:34:52;;;;;;;8.27;5.65;;;;;;;;;;5091349;28;20044;-61
2023/06/29 03:37:19;;;;;;;13.82;5.03;;;;;;;;;;5090381;28;20051;-61
2023/06/29 03:39:49;;;;;;;7.47;4.80;;;;;;;;;;5092584;28;20052;-61
2023/06/29 03:42:15;;;;;;;10.00;5.03;;;;;;;;;;5094101;28;20048;-61
2023/06/29 03:44:44;;;;;;;8.70;5.22;;;;;;;;;;5092048;28;20048;-61
2023/06/29 03:47:10;;;;;;;7.82;4.82;;;;;;;;;;5093488;28;20409;-62
2023/06/29 03:49:37;;;;;;;10.93;5.43;;;;;;;;;;5093344;28;20135;-61
2023/06/29 03:52:04;;;;;;;7.88;5.07;;;;;;;;;;5094424;28;20055;-61
2023/06/29 03:54:31;;;;;;;8.68;4.72;;;;;;;;;;5091373;28;20374;-62
2023/06/29 03:57:01;;;;;;;7.80;5.32;;;;;;;;;;5091946;28;20048;-61
2023/06/29 03:59:28;;;;;;;8.45;5.03;;;;;;;;;;5092722;28;20508;-61
2023/06/29 04:01:57;;;;;;;8.15;4.70;;;;;;;;;;5092517;28;20389;-60
2023/06/29 04:04:24;;;;;;;9.05;4.88;;;;;;;;;;5092865;28;20063;-60
2023/06/29 04:06:51;;;;;;;7.78;5.40;;;;;;;;;;5089509;28;20048;-60
2023/06/29 04:09:17;;;;;;;10.93;5.18;;;;;;;;;;5093810;28;20044;-60
2023/06/29 04:11:44;;;;;;;9.48;5.40;;;;;;;;;;5092737;28;20048;-60
2023/06/29 04:14:11;;;;;;;10.18;5.47;;;;;;;;;;5091542;28;20063;-60
2023/06/29 04:16:38;;;;;;;8.75;5.65;;;;;;;;;;5094134;28;20516;-61
2023/06/29 04:19:06;;;;;;;9.45;5.45;;;;;;;;;;5090180;28;20075;-61
2023/06/29 04:21:33;;;;;;;12.35;6.13;;;;;;;;;;5089441;28;20055;-60
2023/06/29 04:23:59;;;;;;;12.20;6.28;;;;;;;;;;5084185;28;20052;-61
2023/06/29 04:26:27;;;;;;;9.35;5.72;;;;;;;;;;5090068;28;20071;-61
2023/06/29 04:29:00;;;;;;;7.65;5.80;;;;;;;;;;5088180;28;20420;-60
2023/06/29 04:31:28;;;;;;;6.95;5.30;;;;;;;;;;5086915;28;20059;-60
2023/06/29 04:33:58;;;;;;;9.00;5.80;;;;;;;;;;5090856;28;20052;-60
2023/06/29 04:36:26;;;;;;;7.45;5.43;;;;;;;;;;5087147;28;20048;-60
2023/06/29 04:38:53;;;;;;;8.85;5.40;;;;;;;;;;5092972;28;20397;-60
2023/06/29 04:41:30;;;;;;;9.02;5.75;;;;;;;;;;5084957;28;20059;-60
2023/06/29 04:43:57;;;;;;;8.32;5.28;;;;;;;;;;5090707;28;20047;-60
2023/06/29 04:46:25;;;;;;;9.60;6.13;;;;;;;;;;5092213;28;20063;-60
2023/06/29 04:48:52;;;;;;;6.15;5.15;;;;;;;;;;5094615;28;20051;-61
2023/06/29 04:51:19;;;;;;;10.98;5.68;;;;;;;;;;5092204;28;20481;-59
2023/06/29 04:53:47;;;;;;;9.45;5.50;;;;;;;;;;5101982;28;20403;-61
2023/06/29 04:56:14;;;;;;;10.82;5.93;;;;;;;;;;5089181;28;20397;-61
2023/06/29 04:58:41;;;;;;;8.98;6.43;;;;;;;;;;5093101;28;20074;-61
2023/06/29 05:01:08;;;;;;;7.75;5.10;;;;;;;;;;5089521;28;20056;-60
2023/06/29 05:03:37;;;;;;;9.05;6.15;;;;;;;;;;5088904;28;20056;-61
2023/06/29 05:06:04;;;;;;;10.95;6.18;;;;;;;;;;5089492;28;20430;-61
2023/06/29 05:08:31;;;;;;;10.10;5.82;;;;;;;;;;5088837;28;20058;-60
2023/06/29 05:10:59;;;;;;;9.43;5.80;;;;;;;;;;5087923;28;20515;-61
2023/06/29 05:13:26;;;;;;;10.23;5.78;;;;;;;;;;5081966;28;20044;-61
2023/06/29 05:15:53;;;;;;;9.25;6.18;;;;;;;;;;5084525;28;20052;-61
2023/06/29 05:18:20;;;;;;;9.15;5.18;;;;;;;;;;5085687;28;20043;-62
2023/06/29 05:20:47;;;;;;;8.50;5.90;;;;;;;;;;5088444;28;20048;-62
2023/06/29 05:23:14;;;;;;;7.47;4.95;;;;;;;;;;5089346;28;20382;-61
2023/06/29 05:25:41;;;;;;;8.15;5.78;;;;;;;;;;5083370;28;20059;-61
2023/06/29 05:28:09;;;;;;;10.77;6.40;;;;;;;;;;5080416;28;20062;-61
2023/06/29 05:30:36;;;;;;;11.00;6.30;;;;;;;;;;5086281;28;20428;-61
2023/06/29 05:33:03;;;;;;;10.75;5.72;;;;;;;;;;5084291;28;20044;-61
2023/06/29 05:35:40;;;;;;;10.02;6.00;;;;;;;;;;5078832;28;20044;-61
2023/06/29 05:38:07;;;;;;;7.15;6.03;;;;;;;;;;5079543;28;20052;-61
2023/06/29 05:40:34;;;;;;;9.93;5.57;;;;;;;;;;5083900;28;20052;-62
2023/06/29 05:43:01;;;;;;;7.00;5.10;;;;;;;;;;5088499;28;20055;-60
2023/06/29 05:45:29;;;;;;;8.10;5.05;;;;;;;;;;5089881;28;20055;-62
2023/06/29 05:47:56;;;;;;;6.05;4.95;;;;;;;;;;5088913;28;20480;-62
2023/06/29 05:50:22;;;;;;;9.10;6.00;;;;;;;;;;5088316;28;20382;-61
2023/06/29 05:52:49;;;;;;;8.20;6.18;;;;;;;;;;5088002;28;20048;-62
2023/06/29 05:55:16;;;;;;;7.15;5.10;;;;;;;;;;5087158;28;20051;-61
2023/06/29 05:57:43;;;;;;;9.07;5.45;;;;;;;;;;5085621;28;20063;-61
2023/06/29 06:00:12;;;;;;;6.22;4.95;;;;;;;;;;5087071;28;20049;-61
2023/06/29 06:02:40;;;;;;;6.85;5.07;;;;;;;;;;5087723;28;20576;-60
2023/06/29 06:05:08;;;;;;;9.75;5.07;;;;;;;;;;5092379;28;20064;-61
2023/06/29 06:07:35;;;;;;;7.03;5.32;;;;;;;;;;5084223;28;20055;-61
2023/06/29 06:10:02;;;;;;;8.27;4.40;;;;;;;;;;5089432;28;20048;-61
2023/06/29 06:12:28;;;;;;;7.20;4.78;;;;;;;;;;5092788;28;20048;-60
2023/06/29 06:14:55;;;;;;;6.93;5.30;;;;;;;;;;5096984;28;20190;-61
2023/06/29 06:17:22;;;;;;;7.95;5.00;;;;;;;;;;5091788;28;20044;-60
2023/06/29 06:19:51;;;;;;;6.60;4.75;;;;;;;;;;5094939;28;20048;-60
2023/06/29 06:22:17;;;;;;;6.70;5.00;;;;;;;;;;5094013;28;20052;-61
2023/06/29 06:24:44;;;;;;;7.75;5.18;;;;;;;;;;5091782;28;20643;-60
2023/06/29 06:27:11;;;;;;;8.18;5.47;;;;;;;;;;5089007;28;20421;-61
2023/06/29 06:29:38;;;;;;;6.53;5.10;;;;;;;;;;5083485;28;20044;-60
2023/06/29 06:32:05;;;;;;;7.07;4.85;;;;;;;;;;5076818;28;20394;-61
2023/06/29 06:34:32;;;;;;;6.88;5.13;;;;;;;;;;5074628;28;20060;-61
2023/06/29 06:37:00;;;;;;;6.80;5.40;;;;;;;;;;5064098;28;20048;-60
2023/06/29 06:39:27;;;;;;;9.65;5.70;;;;;;;;;;5082684;28;20059;-60
2023/06/29 06:41:54;;;;;;;7.53;5.22;;;;;;;;;;5055706;28;20056;-61
2023/06/29 06:44:21;;;;;;;6.50;5.28;;;;;;;;;;5074432;28;20048;-62
2023/06/29 06:46:47;;;;;;;7.20;4.70;;;;;;;;;;5088073;28;20496;-60
2023/06/29 06:49:14;;;;;;;6.78;4.78;;;;;;;;;;5094054;28;20139;-60
2023/06/29 06:51:41;;;;;;;6.97;4.65;;;;;;;;;;5095503;28;20393;-61
2023/06/29 06:54:09;;;;;;;5.95;4.35;;;;;;;;;;5092671;28;20059;-61
2023/06/29 06:56:37;;;;;;;6.97;4.40;;;;;;;;;;5082526;28;20052;-61
2023/06/29 06:59:04;;;;;;;5.90;4.30;;;;;;;;;;5079757;28;20062;-61
2023/06/29 07:01:31;;;;;;;6.30;4.43;;;;;;;;;;5079500;28;20114;-60
2023/06/29 07:03:58;;;;;;;7.05;3.90;;;;;;;;;;5086774;28;20052;-60
2023/06/29 07:06:30;;;;;;;5.82;3.38;;;;;;;;;;5080468;28;20074;-60
2023/06/29 07:08:58;;;;;;;5.20;3.30;;;;;;;;;;5079637;28;20055;-60
2023/06/29 07:11:26;;;;;;;6.03;3.67;;;;;;;;;;5075018;28;20048;-60
2023/06/29 07:13:53;;;;;;;7.00;3.80;;;;;;;;;;5075202;28;20404;-60
2023/06/29 07:16:20;;;;;;;5.63;4.03;;;;;;;;;;5079790;28;20413;-60
2023/06/29 07:19:03;;;;;;;5.80;3.65;;;;;;;;;;5092490;28;20051;-60
2023/06/29 07:21:30;;;;;;;5.82;4.10;;;;;;;;;;5089647;28;20417;-60
2023/06/29 07:23:57;;;;;;;6.22;3.42;;;;;;;;;;5080031;28;20051;-60
2023/06/29 07:26:24;;;;;;;5.50;3.38;;;;;;;;;;5073230;28;20507;-60
2023/06/29 07:28:52;;;;;;;5.38;3.30;;;;;;;;;;5080275;28;20423;-60
2023/06/29 07:31:19;;;;;;;5.45;3.72;;;;;;;;;;5084763;28;20493;-60
2023/06/29 07:33:46;;;;;;;5.00;3.38;;;;;;;;;;5084446;28;20408;-60
2023/06/29 07:36:13;;;;;;;4.60;3.10;;;;;;;;;;5072115;28;20052;-60
2023/06/29 07:38:39;;;;;;;6.70;3.20;;;;;;;;;;5076445;28;20489;-60
2023/06/29 07:41:08;;;;;;;6.28;3.42;;;;;;;;;;5082748;28;20041;-62
2023/06/29 07:43:35;;;;;;;5.03;3.15;;;;;;;;;;5086887;28;20056;-61
2023/06/29 07:46:03;;;;;;;7.13;4.03;;;;;;;;;;5091998;28;20048;-60
2023/06/29 07:48:30;;;;;;;3.78;2.95;;;;;;;;;;5084285;28;20067;-60
2023/06/29 07:50:57;;;;;;;5.40;3.53;;;;;;;;;;5088543;28;20048;-60
2023/06/29 07:53:24;;;;;;;5.13;3.38;;;;;;;;;;5093116;28;20052;-61
2023/06/29 07:55:50;;;;;;;6.63;3.50;;;;;;;;;;5091944;28;20051;-61
2023/06/29 07:58:17;;;;;;;5.70;3.40;;;;;;;;;;5092529;28;20059;-61
2023/06/29 08:00:44;;;;;;;5.43;3.28;;;;;;;;;;5077039;28;20045;-60
2023/06/29 08:03:12;;;;;;;4.88;3.35;;;;;;;;;;5078945;28;20055;-61
2023/06/29 08:05:39;;;;;;;6.87;3.53;;;;;;;;;;5091020;28;20052;-60
2023/06/29 08:08:06;;;;;;;5.50;3.17;;;;;;;;;;5091143;28;20052;-60
2023/06/29 08:10:32;;;;;;;6.18;3.40;;;;;;;;;;5072822;28;20059;-60
2023/06/29 08:12:59;;;;;;;6.88;3.47;;;;;;;;;;5076678;28;20053;-60
2023/06/29 08:15:26;;;;;;;4.63;3.47;;;;;;;;;;5091822;28;20055;-61
2023/06/29 08:17:53;;;;;;;6.78;3.70;;;;;;;;;;5086571;28;20052;-61
2023/06/29 08:20:22;;;;;;;6.13;3.50;;;;;;;;;;5091068;28;20055;-61
2023/06/29 08:22:49;;;;;;;6.40;3.10;;;;;;;;;;5091025;28;20047;-61
2023/06/29 08:25:16;;;;;;;6.68;3.33;;;;;;;;;;5089479;28;20420;-60
2023/06/29 08:27:43;;;;;;;4.65;3.42;;;;;;;;;;5085636;28;20056;-60
2023/06/29 08:30:10;;;;;;;5.72;2.97;;;;;;;;;;5093469;28;20481;-59
2023/06/29 08:32:37;;;;;;;9.55;3.00;;;;;;;;;;5087968;28;20396;-59
2023/06/29 08:35:04;;;;;;;6.18;2.80;;;;;;;;;;5081410;28;20059;-60
2023/06/29 08:37:32;;;;;;;3.95;2.80;;;;;;;;;;5093453;28;20405;-60
2023/06/29 08:39:59;;;;;;;4.27;2.60;;;;;;;;;;5085340;28;20051;-60
2023/06/29 08:42:26;;;;;;;6.57;3.40;;;;;;;;;;5088658;28;20127;-61
2023/06/29 08:44:53;;;;;;;4.50;2.80;;;;;;;;;;5086582;28;20062;-60
2023/06/29 08:47:21;;;;;;;5.25;2.80;;;;;;;;;;5091187;28;20404;-61
2023/06/29 08:49:49;;;;;;;4.70;2.70;;;;;;;;;;5086347;28;20066;-61
2023/06/29 08:52:17;;;;;;;4.32;3.05;;;;;;;;;;5087137;28;20047;-60
2023/06/29 08:54:45;;;;;;;9.48;2.80;;;;;;;;;;5088687;28;20056;-60
2023/06/29 08:57:12;;;;;;;4.47;2.75;;;;;;;;;;5085626;28;20054;-60
2023/06/29 08:59:40;;;;;;;4.38;2.30;;;;;;;;;;5093202;28;20075;-59
2023/06/29 09:02:07;;;;;;;5.22;2.38;;;;;;;;;;5087502;28;20061;-59
2023/06/29 09:04:33;;;;;;;7.22;2.53;;;;;;;;;;5072833;28;20055;-60
2023/06/29 09:07:03;;;;;;;4.57;3.00;;;;;;;;;;5072683;28;20052;-60
2023/06/29 09:09:30;;;;;;;5.35;2.65;;;;;;;;;;5071879;28;20055;-60
2023/06/29 09:12:00;;;;;;;5.50;2.97;;;;;;;;;;5072553;28;20417;-60
2023/06/29 09:14:28;;;;;;;4.63;2.80;;;;;;;;;;5073166;28;20052;-59
2023/06/29 09:16:58;;;;;;;6.57;2.83;;;;;;;;;;5072464;28;20056;-60
2023/06/29 09:19:25;;;;;;;4.05;2.53;;;;;;;;;;5072599;28;20091;-60
2023/06/29 09:21:52;;;;;;;5.28;2.75;;;;;;;;;;5072063;28;20048;-59
2023/06/29 09:24:19;;;;;;;5.38;3.45;;;;;;;;;;5083473;28;20432;-59
2023/06/29 09:26:49;;;;;;;4.03;2.65;;;;;;;;;;5071484;28;20075;-59
2023/06/29 09:29:17;;;;;;;5.00;3.03;;;;;;;;;;5071925;28;20060;-59
2023/06/29 09:31:54;;;;;;;5.55;2.55;;;;;;;;;;5071694;28;20056;-59
2023/06/29 09:34:21;;;;;;;3.90;2.60;;;;;;;;;;5075973;28;20131;-59
2023/06/29 09:36:57;;;;;;;5.28;2.75;;;;;;;;;;5071241;28;20059;-60
2023/06/29 09:39:25;;;;;;;5.15;2.67;;;;;;;;;;5071991;28;20056;-61
2023/06/29 09:41:52;;;;;;;6.40;2.85;;;;;;;;;;5071983;28;20524;-61
2023/06/29 09:44:21;;;;;;;4.47;2.78;;;;;;;;;;5086290;28;20047;-61
2023/06/29 09:46:48;;;;;;;3.75;2.50;;;;;;;;;;5086456;28;20500;-61
2023/06/29 09:49:15;;;;;;;5.18;2.40;;;;;;;;;;5092459;28;20504;-60
2023/06/29 09:51:41;;;;;;;5.40;2.60;;;;;;;;;;5084642;28;20052;-61
2023/06/29 09:54:10;;;;;;;5.18;2.47;;;;;;;;;;5084377;28;20056;-61
2023/06/29 09:56:37;;;;;;;;;;;;;;;;;;5084605;28;20044;-61
2023/06/29 10:01:52;;;;;;;;;;;;;;;;;;5089465;28;20055;-61
2023/06/29 10:04:21;;;;;;;4.90;2.60;;;;;;;;;;5085124;28;19920;-61
2023/06/29 10:06:49;;;;;;;6.77;2.80;;;;;;;;;;5077001;28;20045;-61
2023/06/29 10:09:17;;;;;;;4.20;2.45;;;;;;;;;;5071798;28;20063;-61
2023/06/29 10:11:45;;;;;;;5.10;2.50;;;;;;;;;;5063771;28;20052;-61
2023/06/29 10:14:14;;;;;;;4.15;2.30;;;;;;;;;;5089670;28;20477;-61
2023/06/29 10:16:41;;;;;;;;;;;;;;;;;;5088865;28;20359;-61
2023/06/29 10:19:10;;;;;;;5.07;2.28;;;;;;;;;;5091806;28;19920;-61
2023/06/29 10:21:38;;;;;;;4.93;2.15;;;;;;;;;;5085878;28;20051;-61
2023/06/29 10:24:06;;;;;;;5.32;2.80;;;;;;;;;;5058112;28;20151;-61
2023/06/29 10:26:33;;;;;;;5.03;2.75;;;;;;;;;;5092385;28;20048;-61
2023/06/29 10:29:00;;;;;;;5.32;2.60;;;;;;;;;;5085424;28;20048;-61
2023/06/29 10:31:33;;;;;;;4.85;2.55;;;;;;;;;;5090397;28;20056;-61
2023/06/29 10:34:00;;;;;;;3.97;2.47;;;;;;;;;;5087932;28;20048;-61
2023/06/29 10:36:27;;;;;;;5.25;2.58;;;;;;;;;;5083256;28;20414;-61
2023/06/29 10:38:55;;;;;;;4.50;2.42;;;;;;;;;;5081740;28;20060;-61
2023/06/29 10:41:26;;;;;;;5.28;2.90;;;;;;;;;;5087172;28;20052;-61
2023/06/29 10:43:56;;;;;;;5.10;2.90;;;;;;;;;;5092122;28;20056;-61
2023/06/29 10:46:37;;;;;;;5.60;2.97;;;;;;;;;;5071437;28;20117;-61
2023/06/29 10:49:08;;;;;;;6.22;3.55;;;;;;;;;;5084178;28;20059;-61
2023/06/29 10:51:49;;;;;;;6.10;3.60;;;;;;;;;;5087887;28;20059;-61
2023/06/29 10:54:23;;;;;;;5.75;3.80;;;;;;;;;;5087030;28;20400;-61
2023/06/29 10:56:56;;;;;;;5.20;3.50;;;;;;;;;;5054664;28;20068;-61
2023/06/29 10:59:23;;;;;;;7.00;3.33;;;;;;;;;;5055494;28;20101;-61
2023/06/29 11:01:51;;;;;;;4.85;3.65;;;;;;;;;;5090012;28;20047;-61
2023/06/29 11:04:20;;;;;;;5.93;3.58;;;;;;;;;;5095628;28;20056;-60
2023/06/29 11:06:47;;;;;;;4.90;3.47;;;;;;;;;;5093245;28;20056;-61
2023/06/29 11:09:14;;;;;;;6.65;3.75;;;;;;;;;;5083916;28;20060;-60
2023/06/29 11:11:47;;;;;;;6.05;4.10;;;;;;;;;;5086118;28;20382;-60
2023/06/29 11:14:13;;;;;;;6.78;3.90;;;;;;;;;;5080171;28;20412;-59
2023/06/29 11:16:43;;;;;;;5.32;3.67;;;;;;;;;;5092524;28;20048;-60
2023/06/29 11:19:11;;;;;;;5.72;4.32;;;;;;;;;;5090739;28;20059;-60
2023/06/29 11:21:37;;;;;;;6.10;3.78;;;;;;;;;;5094517;28;20044;-60
2023/06/29 11:24:05;;;;;;;7.53;4.40;;;;;;;;;;5087138;28;20508;-59
2023/06/29 11:26:32;;;;;;;5.45;3.95;;;;;;;;;;5080596;28;20056;-60
2023/06/29 11:29:00;;;;;;;6.63;4.60;;;;;;;;;;5083210;28;20507;-60
2023/06/29 11:31:27;;;;;;;5.00;4.30;;;;;;;;;;5061366;28;20044;-60
2023/06/29 11:33:56;;;;;;;5.45;4.03;;;;;;;;;;5058965;28;20052;-60
2023/06/29 11:36:23;;;;;;;;;;;;;;;;;;5087460;28;20063;-60
2023/06/29 11:39:02;;;;;;;6.90;4.35;;;;;;;;;;5089326;28;19920;-59
2023/06/29 11:41:30;;;;;;;7.13;4.55;;;;;;;;;;5094159;28;20051;-59
2023/06/29 11:43:57;;;;;;;8.23;5.00;;;;;;;;;;5093561;28;20052;-60
2023/06/29 11:46:25;;;;;;;7.32;5.20;;;;;;;;;;5086756;28;20052;-59
2023/06/29 11:48:55;;;;;;;5.95;4.50;;;;;;;;;;5091464;28;20055;-61
2023/06/29 11:51:24;;;;;;;6.15;4.53;;;;;;;;;;5088940;28;20044;-60
2023/06/29 11:53:51;;;;;;;5.43;4.40;;;;;;;;;;5091852;28;20052;-61
2023/06/29 11:56:24;;;;;;;8.13;5.40;;;;;;;;;;5087325;28;20059;-60
2023/06/29 11:58:51;;;;;;;6.13;3.95;;;;;;;;;;5094462;28;20473;-61
2023/06/29 12:01:18;;;;;;;6.38;4.13;;;;;;;;;;5086504;28;20048;-60
2023/06/29 12:03:49;;;;;;;5.95;3.75;;;;;;;;;;5093215;28;20059;-61
2023/06/29 12:06:16;;;;;;;5.13;3.90;;;;;;;;;;5091375;28;20056;-61
2023/06/29 12:08:44;;;;;;;6.30;4.15;;;;;;;;;;5080417;28;20048;-60
2023/06/29 12:11:17;;;;;;;5.50;4.03;;;;;;;;;;5072672;28;20052;-61
2023/06/29 12:13:45;;;;;;;4.70;3.53;;;;;;;;;;5094211;28;20485;-61
2023/06/29 12:16:12;;;;;;;11.00;4.10;;;;;;;;;;5091397;28;20059;-61
2023/06/29 12:18:39;;;;;;;8.85;3.97;;;;;;;;;;5088861;28;20059;-61
2023/06/29 12:21:07;;;;;;;5.78;3.55;;;;;;;;;;5091268;28;20056;-61
2023/06/29 12:23:37;;;;;;;6.43;4.35;;;;;;;;;;5087833;28;20052;-61
2023/06/29 12:26:04;;;;;;;5.45;3.45;;;;;;;;;;5078328;28;20063;-61
2023/06/29 12:28:32;;;;;;;4.25;3.33;;;;;;;;;;5087689;28;20044;-61
2023/06/29 12:31:00;;;;;;;6.47;4.10;;;;;;;;;;5093525;28;20056;-61
2023/06/29 12:33:27;;;;;;;6.97;3.90;;;;;;;;;;5089550;28;20070;-60
2023/06/29 12:35:54;;;;;;;5.05;3.70;;;;;;;;;;5081908;28;20048;-60
2023/06/29 12:38:23;;;;;;;4.53;3.60;;;;;;;;;;5089619;28;20055;-61
2023/06/29 12:40:51;;;;;;;6.40;4.22;;;;;;;;;;5085873;28;20513;-60
2023/06/29 12:43:18;;;;;;;5.13;3.85;;;;;;;;;;5087317;28;20048;-60
2023/06/29 12:45:48;;;;;;;5.80;4.25;;;;;;;;;;5087678;28;20059;-60
2023/06/29 12:48:15;;;;;;;5.60;4.20;;;;;;;;;;5090315;28;20059;-60
2023/06/29 12:50:43;;;;;;;5.95;4.70;;;;;;;;;;5090546;28;20070;-60
2023/06/29 12:53:10;;;;;;;7.40;4.40;;;;;;;;;;5088499;28;20052;-60
2023/06/29 12:55:38;;;;;;;8.75;4.88;;;;;;;;;;5089509;28;20513;-61
2023/06/29 12:58:05;;;;;;;6.55;4.85;;;;;;;;;;5084354;28;20056;-61
2023/06/29 13:00:31;;;;;;;5.38;4.78;;;;;;;;;;5090859;28;20048;-61
2023/06/29 13:02:58;;;;;;;8.52;5.43;;;;;;;;;;5092951;28;20048;-61
2023/06/29 13:05:25;;;;;;;6.50;5.22;;;;;;;;;;5087893;28;20059;-61
2023/06/29 13:07:52;;;;;;;8.70;5.28;;;;;;;;;;5092517;28;20047;-61
2023/06/29 13:10:22;;;;;;;6.53;5.18;;;;;;;;;;5079915;28;20063;-61
2023/06/29 13:12:50;;;;;;;7.63;6.00;;;;;;;;;;5083933;28;20048;-62
2023/06/29 13:15:17;;;;;;;9.32;6.28;;;;;;;;;;5089696;28;20063;-62
2023/06/29 13:17:43;;;;;;;8.70;5.97;;;;;;;;;;5081680;28;20049;-61
2023/06/29 13:20:14;;;;;;;8.68;6.20;;;;;;;;;;5092398;28;20058;-61
2023/06/29 13:22:41;;;;;;;7.43;5.20;;;;;;;;;;5089264;28;20057;-61
2023/06/29 13:25:08;;;;;;;8.55;6.22;;;;;;;;;;5080944;28;20497;-61
2023/06/29 13:27:37;;;;;;;8.82;6.10;;;;;;;;;;5073360;28;20067;-61
2023/06/29 13:30:09;;;;;;;9.38;6.53;;;;;;;;;;5052726;28;20064;-61
2023/06/29 13:32:35;;;;;;;8.85;6.20;;;;;;;;;;5086145;28;20055;-61
2023/06/29 13:35:02;;;;;;;8.68;6.97;;;;;;;;;;5092602;28;20055;-62
2023/06/29 13:37:29;;;;;;;9.00;6.47;;;;;;;;;;5081714;28;20516;-61
2023/06/29 13:39:56;;;;;;;8.57;6.40;;;;;;;;;;5092665;28;20063;-61
2023/06/29 13:42:23;;;;;;;8.85;7.00;;;;;;;;;;5080343;28;20048;-61
2023/06/29 13:44:49;;;;;;;7.78;6.50;;;;;;;;;;5090171;28;20404;-61
2023/06/29 13:47:19;;;;;;;11.80;7.25;;;;;;;;;;5089956;28;20408;-62
2023/06/29 13:49:45;;;;;;;11.02;7.25;;;;;;;;;;5090179;28;20098;-61
2023/06/29 13:52:12;;;;;;;9.93;7.65;;;;;;;;;;5086284;28;20381;-61
2023/06/29 13:54:39;;;;;;;9.57;6.72;;;;;;;;;;5084570;28;20476;-61
2023/06/29 13:57:06;;;;;;;10.50;6.82;;;;;;;;;;5084181;28;20507;-61
2023/06/29 13:59:33;;;;;;;9.35;6.85;;;;;;;;;;5089053;28;20052;-61
2023/06/29 14:02:01;;;;;;;9.80;7.45;;;;;;;;;;5089025;28;20048;-61
2023/06/29 14:04:29;;;;;;;9.25;7.25;;;;;;;;;;5092325;28;20456;-61
2023/06/29 14:06:56;;;;;;;9.32;6.97;;;;;;;;;;5090533;28;20051;-61
2023/06/29 14:09:24;;;;;;;10.13;7.30;;;;;;;;;;5088135;28;20496;-61
2023/06/29 14:11:50;;;;;;;9.50;7.45;;;;;;;;;;5071640;28;20510;-62
2023/06/29 14:14:17;;;;;;;10.45;8.57;;;;;;;;;;5081003;28;20408;-62
2023/06/29 14:16:45;;;;;;;10.23;8.13;;;;;;;;;;5081930;28;20056;-61
2023/06/29 14:19:12;;;;;;;12.27;8.80;;;;;;;;;;5087602;28;20496;-61
2023/06/29 14:21:42;;;;;;;10.98;8.82;;;;;;;;;;5090249;28;20056;-61
2023/06/29 14:24:09;;;;;;;14.90;9.50;;;;;;;;;;5088858;28;20056;-61
2023/06/29 14:26:35;;;;;;;12.35;9.30;;;;;;;;;;5085163;28;20045;-61
2023/06/29 14:29:02;;;;;;;11.75;8.50;;;;;;;;;;5088877;28;20052;-62
2023/06/29 14:31:29;;;;;;;14.65;10.40;;;;;;;;;;5093397;28;20075;-61
2023/06/29 14:33:58;;;;;;;12.02;8.98;;;;;;;;;;5083997;28;20044;-61
2023/06/29 14:36:24;;;;;;;12.05;9.13;;;;;;;;;;5091520;28;20063;-61
2023/06/29 14:38:53;;;;;;;14.23;9.57;;;;;;;;;;5092324;28;20061;-61
2023/06/29 14:41:20;;;;;;;12.20;9.33;;;;;;;;;;5093665;28;20052;-61
2023/06/29 14:43:47;;;;;;;14.88;10.00;;;;;;;;;;5086661;28;20497;-61
2023/06/29 14:46:13;;;;;;;20.35;10.48;;;;;;;;;;5085940;28;20060;-61
2023/06/29 14:48:40;;;;;;;14.73;9.90;;;;;;;;;;5092612;28;20059;-61